createdAt,value
2022-09-22T00:02:36.305Z,100296.41
2022-09-22T00:05:23.552Z,100295.03
2022-09-22T00:08:09.594Z,100293.84
2022-09-22T00:11:05.032Z,100298.37
2022-09-22T00:13:54.972Z,100293.16
2022-09-22T00:16:42.486Z,100288.75
2022-09-22T00:19:32.988Z,100274.00
2022-09-22T00:22:19.409Z,100278.81
2022-09-22T00:25:06.876Z,100282.78
2022-09-22T00:27:54.445Z,100287.16
2022-09-22T00:30:42.417Z,100285.91
2022-09-22T00:33:28.456Z,100288.25
2022-09-22T00:36:15.934Z,100280.00
2022-09-22T00:39:02.733Z,100279.31
2022-09-22T00:41:51.067Z,100277.63
2022-09-22T00:44:44.613Z,100281.03
2022-09-22T00:47:34.940Z,100279.12
2022-09-22T00:50:24.348Z,100272.34
2022-09-22T00:53:13.261Z,100273.84
2022-09-22T00:56:22.297Z,100272.94
2022-09-22T00:59:12.703Z,100272.53
2022-09-22T01:01:59.060Z,100263.69
2022-09-22T01:04:46.084Z,100266.56
2022-09-22T01:07:32.396Z,100273.84
2022-09-22T01:10:18.764Z,100269.84
2022-09-22T01:13:45.135Z,100262.97
2022-09-22T01:16:43.394Z,100262.56
2022-09-22T01:19:45.189Z,100257.69
2022-09-22T01:22:46.894Z,100250.87
2022-09-22T01:26:00.749Z,100259.72
2022-09-22T01:29:11.824Z,100253.72
2022-09-22T01:32:01.354Z,100244.75
2022-09-22T01:35:06.192Z,100255.81
2022-09-22T01:38:03.546Z,100256.66
2022-09-22T01:41:04.334Z,100261.50
2022-09-22T01:43:55.288Z,100266.19
2022-09-22T01:46:50.077Z,100264.97
2022-09-22T01:49:40.592Z,100261.59
2022-09-22T01:52:32.567Z,100264.06
2022-09-22T01:55:26.772Z,100264.03
2022-09-22T01:58:19.814Z,100269.44
2022-09-22T02:01:14.931Z,100261.88
2022-09-22T02:04:13.504Z,100261.75
2022-09-22T02:07:11.046Z,100259.69
2022-09-22T02:09:59.156Z,100254.50
2022-09-22T02:12:45.646Z,100258.44
2022-09-22T02:15:50.520Z,100258.28
2022-09-22T02:18:42.916Z,100247.72
2022-09-22T02:21:29.506Z,100259.69
2022-09-22T02:24:31.115Z,100259.41
2022-09-22T02:27:27.152Z,100263.22
2022-09-22T02:30:14.030Z,100253.16
2022-09-22T02:33:01.065Z,100258.25
2022-09-22T02:35:48.728Z,100263.41
2022-09-22T02:38:47.985Z,100253.34
2022-09-22T02:41:44.854Z,100249.16
2022-09-22T02:44:36.579Z,100257.03
2022-09-22T02:47:34.407Z,100254.19
2022-09-22T02:50:23.452Z,100257.25
2022-09-22T02:53:16.955Z,100259.62
2022-09-22T02:56:03.733Z,100259.78
2022-09-22T02:58:49.977Z,100255.09
2022-09-22T03:01:36.395Z,100255.06
2022-09-22T03:04:22.281Z,100257.28
2022-09-22T03:07:08.658Z,100246.50
2022-09-22T03:09:54.413Z,100251.72
2022-09-22T03:13:09.190Z,100249.25
2022-09-22T03:15:49.924Z,100247.69
2022-09-22T03:18:36.137Z,100241.16
2022-09-22T03:21:21.882Z,100252.03
2022-09-22T03:24:08.333Z,100261.19
2022-09-22T03:26:54.278Z,100249.50
2022-09-22T03:29:40.479Z,100252.88
2022-09-22T03:32:26.560Z,100256.91
2022-09-22T03:35:12.791Z,100259.62
2022-09-22T03:37:58.603Z,100245.78
2022-09-22T03:40:52.441Z,100242.53
2022-09-22T03:43:38.320Z,100245.78
2022-09-22T03:46:25.117Z,100238.69
2022-09-22T03:49:11.612Z,100236.41
2022-09-22T03:51:58.095Z,100242.62
2022-09-22T03:54:43.957Z,100243.44
2022-09-22T03:57:30.281Z,100249.59
2022-09-22T04:00:16.950Z,100246.59
2022-09-22T04:03:03.379Z,100242.53
2022-09-22T04:05:49.931Z,100235.38
2022-09-22T04:08:36.286Z,100244.88
2022-09-22T04:11:23.562Z,100242.41
2022-09-22T04:14:09.743Z,100243.97
2022-09-22T04:16:56.748Z,100239.09
2022-09-22T04:19:42.819Z,100241.75
2022-09-22T04:22:29.034Z,100243.78
2022-09-22T04:25:15.192Z,100240.59
2022-09-22T04:28:04.885Z,100246.09
2022-09-22T04:30:51.896Z,100249.03
2022-09-22T04:33:37.812Z,100254.16
2022-09-22T04:36:24.178Z,100251.47
2022-09-22T04:39:10.090Z,100256.53
2022-09-22T04:41:56.097Z,100262.69
2022-09-22T04:44:41.944Z,100268.63
2022-09-22T04:47:31.420Z,100262.28
2022-09-22T04:50:17.712Z,100257.69
2022-09-22T04:53:04.077Z,100257.25
2022-09-22T04:55:50.213Z,100257.25
2022-09-22T04:58:36.204Z,100256.66
2022-09-22T05:01:22.079Z,100261.37
2022-09-22T05:04:09.348Z,100257.63
2022-09-22T05:06:55.329Z,100260.09
2022-09-22T05:09:41.418Z,100254.19
2022-09-22T05:12:27.606Z,100253.97
2022-09-22T05:15:14.203Z,100255.84
2022-09-22T05:18:00.066Z,100257.22
2022-09-22T05:20:46.537Z,100259.84
2022-09-22T05:23:32.238Z,100261.31
2022-09-22T05:26:19.356Z,100252.31
2022-09-22T05:29:06.357Z,100242.78
2022-09-22T05:31:52.492Z,100258.00
2022-09-22T05:34:38.154Z,100255.56
2022-09-22T05:37:24.222Z,100253.94
2022-09-22T05:40:10.922Z,100263.22
2022-09-22T05:42:57.403Z,100255.59
2022-09-22T05:45:43.966Z,100264.03
2022-09-22T05:48:31.412Z,100268.94
2022-09-22T05:51:17.666Z,100273.59
2022-09-22T05:54:04.205Z,100264.84
2022-09-22T05:56:49.972Z,100265.97
2022-09-22T05:59:36.039Z,100264.31
2022-09-22T06:02:26.113Z,100268.16
2022-09-22T06:05:16.205Z,100255.47
2022-09-22T06:08:05.223Z,100258.19
2022-09-22T06:10:52.784Z,100264.72
2022-09-22T06:13:39.669Z,100271.69
2022-09-22T06:16:26.007Z,100269.91
2022-09-22T06:19:12.131Z,100275.50
2022-09-22T06:21:58.574Z,100277.94
2022-09-22T06:24:45.316Z,100275.13
2022-09-22T06:27:31.924Z,100279.97
2022-09-22T06:30:18.531Z,100281.47
2022-09-22T06:33:04.911Z,100277.22
2022-09-22T06:35:51.232Z,100279.50
2022-09-22T06:38:37.566Z,100280.81
2022-09-22T06:41:23.790Z,100281.19
2022-09-22T06:44:12.671Z,100283.78
2022-09-22T06:46:59.694Z,100278.72
2022-09-22T06:49:46.702Z,100269.00
2022-09-22T06:52:36.142Z,100274.87
2022-09-22T06:55:23.780Z,100274.72
2022-09-22T06:58:10.075Z,100277.81
2022-09-22T07:00:59.222Z,100287.31
2022-09-22T07:03:46.303Z,100278.59
2022-09-22T07:06:33.316Z,100280.41
2022-09-22T07:09:19.965Z,100283.75
2022-09-22T07:12:06.407Z,100276.34
2022-09-22T07:14:53.409Z,100282.41
2022-09-22T07:17:40.057Z,100276.25
2022-09-22T07:20:26.374Z,100278.81
2022-09-22T07:23:19.054Z,100277.72
2022-09-22T07:26:06.465Z,100275.19
2022-09-22T07:28:53.969Z,100271.78
2022-09-22T07:31:41.494Z,100277.16
2022-09-22T07:34:27.683Z,100291.25
2022-09-22T07:37:15.510Z,100285.75
2022-09-22T07:40:03.495Z,100285.84
2022-09-22T07:42:49.817Z,100277.63
2022-09-22T07:45:36.268Z,100284.53
2022-09-22T07:48:42.367Z,100285.75
2022-09-22T07:51:28.971Z,100286.22
2022-09-22T07:54:15.906Z,100289.50
2022-09-22T07:57:11.101Z,100286.62
2022-09-22T07:59:57.621Z,100273.59
2022-09-22T08:02:44.659Z,100276.66
2022-09-22T08:05:33.992Z,100278.72
2022-09-22T08:08:20.806Z,100274.66
2022-09-22T08:11:08.661Z,100278.34
2022-09-22T08:13:55.333Z,100281.53
2022-09-22T08:16:41.795Z,100285.56
2022-09-22T08:19:33.874Z,100288.97
2022-09-22T08:22:20.153Z,100292.00
2022-09-22T08:25:07.404Z,100290.69
2022-09-22T08:27:54.293Z,100282.81
2022-09-22T08:30:45.216Z,100287.81
2022-09-22T08:33:34.288Z,100281.03
2022-09-22T08:36:20.793Z,100278.81
2022-09-22T08:39:07.260Z,100284.34
2022-09-22T08:42:07.297Z,100278.66
2022-09-22T08:45:04.268Z,100275.03
2022-09-22T08:48:18.548Z,100280.28
2022-09-22T08:51:42.000Z,100272.91
2022-09-22T08:54:28.505Z,100268.38
2022-09-22T08:57:33.352Z,100269.09
2022-09-22T09:00:19.403Z,100267.44
2022-09-22T09:03:24.296Z,100260.66
2022-09-22T09:06:16.197Z,100272.75
2022-09-22T09:09:11.485Z,100264.84
2022-09-22T09:11:58.188Z,100275.16
2022-09-22T09:15:03.961Z,100270.16
2022-09-22T09:17:49.819Z,100267.22
2022-09-22T09:20:38.988Z,100270.00
2022-09-22T09:26:40.006Z,100265.00
2022-09-22T09:29:29.870Z,100266.06
2022-09-22T09:32:21.753Z,100268.41
2022-09-22T09:35:08.183Z,100272.75
2022-09-22T09:37:55.664Z,100266.53
2022-09-22T09:40:41.682Z,100265.34
2022-09-22T09:43:28.271Z,100267.22
2022-09-22T09:46:17.988Z,100267.47
2022-09-22T09:49:05.669Z,100269.66
2022-09-22T09:51:52.876Z,100271.19
2022-09-22T09:54:40.743Z,100269.16
2022-09-22T09:57:28.070Z,100262.00
2022-09-22T10:00:31.817Z,100259.88
2022-09-22T10:03:25.393Z,100258.22
2022-09-22T10:06:11.780Z,100257.56
2022-09-22T10:08:58.180Z,100258.59
2022-09-22T10:11:43.966Z,100259.75
2022-09-22T10:14:31.694Z,100255.66
2022-09-22T10:17:21.942Z,100262.12
2022-09-22T10:20:17.220Z,100250.81
2022-09-22T10:23:22.684Z,100264.06
2022-09-22T10:26:16.130Z,100268.03
2022-09-22T10:29:20.966Z,100259.69
2022-09-22T10:32:17.009Z,100259.38
2022-09-22T10:35:29.945Z,100260.19
2022-09-22T10:38:21.966Z,100250.66
2022-09-22T10:41:12.437Z,100246.25
2022-09-22T10:44:35.071Z,100253.28
2022-09-22T10:47:27.356Z,100240.19
2022-09-22T10:50:35.747Z,100244.34
2022-09-22T10:53:31.220Z,100239.03
2022-09-22T10:56:26.481Z,100243.63
2022-09-22T10:59:15.427Z,100233.28
2022-09-22T11:02:04.929Z,100234.81
2022-09-22T11:04:53.340Z,100218.34
2022-09-22T11:08:10.698Z,100222.84
2022-09-22T11:11:18.485Z,100221.13
2022-09-22T11:14:17.410Z,100212.09
2022-09-22T11:17:06.110Z,100211.44
2022-09-22T11:20:16.635Z,100213.97
2022-09-22T11:23:08.777Z,100208.88
2022-09-22T11:26:02.161Z,100203.69
2022-09-22T11:29:07.644Z,100206.53
2022-09-22T11:32:08.930Z,100196.44
2022-09-22T11:35:00.871Z,100200.31
2022-09-22T11:37:53.260Z,100185.41
2022-09-22T11:40:51.459Z,100188.47
2022-09-22T11:43:47.024Z,100183.63
2022-09-22T11:46:45.008Z,100175.81
2022-09-22T11:49:37.170Z,100174.50
2022-09-22T11:52:43.757Z,100174.78
2022-09-22T11:55:36.247Z,100171.47
2022-09-22T11:58:22.744Z,100166.94
2022-09-22T12:01:13.282Z,100172.78
2022-09-22T12:04:15.590Z,100165.06
2022-09-22T12:07:03.281Z,100162.13
2022-09-22T12:09:56.626Z,100159.47
2022-09-22T12:12:43.440Z,100153.56
2022-09-22T12:15:37.918Z,100160.53
2022-09-22T12:18:26.668Z,100154.72
2022-09-22T12:21:22.638Z,100161.28
2022-09-22T12:24:09.389Z,100162.25
2022-09-22T12:26:55.279Z,100163.50
2022-09-22T12:29:42.050Z,100158.41
2022-09-22T12:32:36.345Z,100158.87
2022-09-22T12:35:30.321Z,100160.06
2022-09-22T12:38:19.821Z,100164.75
2022-09-22T12:41:06.057Z,100159.75
2022-09-22T12:43:52.225Z,100163.41
2022-09-22T12:46:39.104Z,100164.84
2022-09-22T12:49:25.551Z,100154.47
2022-09-22T12:52:30.592Z,100153.09
2022-09-22T12:55:19.983Z,100148.53
2022-09-22T12:58:21.422Z,100149.06
2022-09-22T13:01:26.634Z,100147.31
2022-09-22T13:04:16.962Z,100135.63
2022-09-22T13:07:03.533Z,100148.09
2022-09-22T13:09:50.629Z,100138.22
2022-09-22T13:12:36.823Z,100148.72
2022-09-22T13:15:22.558Z,100150.97
2022-09-22T13:18:27.265Z,100148.63
2022-09-22T13:21:13.196Z,100133.72
2022-09-22T13:24:02.261Z,100144.38
2022-09-22T13:26:48.229Z,100133.72
2022-09-22T13:29:34.779Z,100143.00
2022-09-22T13:32:27.045Z,100149.09
2022-09-22T13:35:27.076Z,100131.91
2022-09-22T13:38:13.691Z,100131.69
2022-09-22T13:41:03.249Z,100125.53
2022-09-22T13:43:49.060Z,100121.69
2022-09-22T13:46:37.580Z,100118.03
2022-09-22T13:49:35.513Z,100121.06
2022-09-22T13:52:22.351Z,100118.37
2022-09-22T13:55:08.349Z,100114.09
2022-09-22T13:57:55.505Z,100113.09
2022-09-22T14:01:08.570Z,100109.75
2022-09-22T14:03:49.529Z,100117.34
2022-09-22T14:06:36.830Z,100106.53
2022-09-22T14:09:23.508Z,100104.59
2022-09-22T14:12:10.133Z,100103.97
2022-09-22T14:14:56.240Z,100098.75
2022-09-22T14:17:42.213Z,100105.56
2022-09-22T14:20:28.432Z,100102.63
2022-09-22T14:23:15.855Z,100098.06
2022-09-22T14:26:18.147Z,100092.88
2022-09-22T14:29:27.319Z,100100.53
2022-09-22T14:32:24.822Z,100097.41
2022-09-22T14:35:31.965Z,100090.91
2022-09-22T14:38:22.076Z,100096.25
2022-09-22T14:41:23.614Z,100091.75
2022-09-22T14:44:28.896Z,100094.44
2022-09-22T14:47:17.783Z,100083.22
2022-09-22T14:50:07.330Z,100086.06
2022-09-22T14:52:54.889Z,100090.28
2022-09-22T14:55:47.764Z,100088.34
2022-09-22T14:58:38.389Z,100092.34
2022-09-22T15:01:48.855Z,100088.78
2022-09-22T15:04:36.955Z,100075.25
2022-09-22T15:07:25.873Z,100088.41
2022-09-22T15:10:22.319Z,100079.53
2022-09-22T15:13:28.139Z,100077.13
2022-09-22T15:16:33.479Z,100091.59
2022-09-22T15:19:22.983Z,100113.28
2022-09-22T15:22:13.615Z,100124.38
2022-09-22T15:24:59.920Z,100127.19
2022-09-22T15:27:45.833Z,100131.87
2022-09-22T15:30:32.813Z,100111.75
2022-09-22T15:33:19.276Z,100125.63
2022-09-22T15:36:15.892Z,100137.31
2022-09-22T15:39:08.733Z,100123.94
2022-09-22T15:41:57.079Z,100121.87
2022-09-22T15:44:44.236Z,100126.31
2022-09-22T15:47:30.845Z,100125.37
2022-09-22T15:50:17.741Z,100117.59
2022-09-22T15:53:04.124Z,100123.25
2022-09-22T15:55:50.599Z,100123.16
2022-09-22T15:58:39.155Z,100121.87
2022-09-22T16:01:26.046Z,100125.78
2022-09-22T16:04:12.943Z,100121.53
2022-09-22T16:07:02.304Z,100128.22
2022-09-22T16:09:48.928Z,100119.44
2022-09-22T16:12:34.734Z,100123.88
2022-09-22T16:15:20.669Z,100128.91
2022-09-22T16:18:08.504Z,100127.34
2022-09-22T16:21:02.497Z,100131.41
2022-09-22T16:23:48.479Z,100132.84
2022-09-22T16:26:35.341Z,100130.34
2022-09-22T16:29:21.210Z,100127.19
2022-09-22T16:32:07.587Z,100132.72
2022-09-22T16:34:53.542Z,100131.19
2022-09-22T16:37:39.565Z,100141.34
2022-09-22T16:40:25.832Z,100137.41
2022-09-22T16:43:13.179Z,100144.28
2022-09-22T16:46:17.945Z,100139.56
2022-09-22T16:49:09.881Z,100136.47
2022-09-22T16:51:56.018Z,100140.06
2022-09-22T16:54:42.396Z,100140.12
2022-09-22T16:57:29.159Z,100135.94
2022-09-22T17:00:15.961Z,100145.81
2022-09-22T17:03:01.753Z,100146.41
2022-09-22T17:05:48.475Z,100158.44
2022-09-22T17:08:35.439Z,100150.47
2022-09-22T17:11:24.399Z,100153.22
2022-09-22T17:14:12.545Z,100168.69
2022-09-22T17:17:06.172Z,100163.88
2022-09-22T17:19:52.273Z,100172.44
2022-09-22T17:22:38.915Z,100173.22
2022-09-22T17:25:27.958Z,100180.34
2022-09-22T17:28:14.063Z,100177.28
2022-09-22T17:31:01.285Z,100179.63
2022-09-22T17:33:51.945Z,100183.56
2022-09-22T17:36:38.582Z,100186.22
2022-09-22T17:39:25.772Z,100188.81
2022-09-22T17:42:14.676Z,100184.75
2022-09-22T17:45:00.879Z,100191.00
2022-09-22T17:48:05.393Z,100188.22
2022-09-22T17:51:10.089Z,100197.97
2022-09-22T17:54:25.592Z,100199.13
2022-09-22T17:57:19.029Z,100198.38
2022-09-22T18:00:06.528Z,100201.34
2022-09-22T18:02:54.281Z,100208.09
2022-09-22T18:05:41.106Z,100198.59
2022-09-22T18:08:27.341Z,100199.97
2022-09-22T18:11:13.931Z,100204.34
2022-09-22T18:14:00.975Z,100202.38
2022-09-22T18:16:48.027Z,100201.81
2022-09-22T18:19:37.235Z,100210.78
2022-09-22T18:22:24.775Z,100212.47
2022-09-22T18:25:11.218Z,100216.69
2022-09-22T18:27:58.113Z,100220.13
2022-09-22T18:30:46.509Z,100225.34
2022-09-22T18:33:32.373Z,100218.72
2022-09-22T18:36:18.877Z,100229.78
2022-09-22T18:39:05.415Z,100231.50
2022-09-22T18:41:54.939Z,100227.84
2022-09-22T18:44:41.520Z,100210.25
2022-09-22T18:47:27.742Z,100222.28
2022-09-22T18:50:13.574Z,100227.19
2022-09-22T18:53:00.249Z,100236.81
2022-09-22T18:55:47.952Z,100230.47
2022-09-22T18:58:34.236Z,100233.69
2022-09-22T19:01:20.437Z,100236.13
2022-09-22T19:04:07.574Z,100227.56
2022-09-22T19:07:12.714Z,100226.78
2022-09-22T19:09:59.037Z,100219.31
2022-09-22T19:12:44.986Z,100224.41
2022-09-22T19:15:31.567Z,100220.75
2022-09-22T19:18:22.431Z,100223.41
2022-09-22T19:21:14.362Z,100223.69
2022-09-22T19:24:00.295Z,100225.62
2022-09-22T19:26:48.205Z,100227.50
2022-09-22T19:29:34.478Z,100217.28
2022-09-22T19:32:20.634Z,100219.09
2022-09-22T19:35:06.942Z,100219.34
2022-09-22T19:37:53.290Z,100216.37
2022-09-22T19:40:39.274Z,100213.81
2022-09-22T19:43:26.273Z,100214.66
2022-09-22T19:46:12.017Z,100211.91
2022-09-22T19:48:58.766Z,100212.41
2022-09-22T19:51:45.579Z,100215.88
2022-09-22T19:54:32.116Z,100216.03
2022-09-22T19:57:18.005Z,100217.34
2022-09-22T20:00:04.812Z,100220.91
2022-09-22T20:03:00.885Z,100225.16
2022-09-22T20:05:48.825Z,100225.59
2022-09-22T20:08:36.221Z,100226.72
2022-09-22T20:11:26.499Z,100222.56
2022-09-22T20:14:23.778Z,100228.03
2022-09-22T20:17:10.614Z,100233.91
2022-09-22T20:19:57.189Z,100229.84
2022-09-22T20:22:44.885Z,100234.91
2022-09-22T20:25:32.247Z,100234.06
2022-09-22T20:28:18.768Z,100228.81
2022-09-22T20:31:09.715Z,100244.66
2022-09-22T20:33:56.182Z,100236.09
2022-09-22T20:36:43.352Z,100238.59
2022-09-22T20:39:29.741Z,100243.25
2022-09-22T20:42:16.129Z,100237.31
2022-09-22T20:45:02.560Z,100246.31
2022-09-22T20:47:50.006Z,100242.75
2022-09-22T20:50:36.790Z,100247.50
2022-09-22T20:53:23.055Z,100238.97
2022-09-22T20:56:11.141Z,100242.00
2022-09-22T20:58:57.107Z,100241.47
2022-09-22T21:01:43.429Z,100239.28
2022-09-22T21:04:30.139Z,100242.66
2022-09-22T21:07:16.774Z,100238.31
2022-09-22T21:10:21.757Z,100238.25
2022-09-22T21:13:08.608Z,100234.25
2022-09-22T21:16:04.861Z,100238.75
2022-09-22T21:18:51.868Z,100248.59
2022-09-22T21:21:37.958Z,100245.34
2022-09-22T21:24:24.430Z,100239.25
2022-09-22T21:27:10.870Z,100245.38
2022-09-22T21:29:57.246Z,100246.81
2022-09-22T21:32:43.526Z,100246.31
2022-09-22T21:35:30.000Z,100249.53
2022-09-22T21:38:16.963Z,100250.03
2022-09-22T21:41:05.549Z,100240.75
2022-09-22T21:43:51.746Z,100253.47
2022-09-22T21:46:40.850Z,100247.41
2022-09-22T21:49:27.065Z,100245.50
2022-09-22T21:52:13.387Z,100242.62
2022-09-22T21:54:59.268Z,100235.66
2022-09-22T21:57:45.436Z,100244.22
2022-09-22T22:00:50.746Z,100240.91
2022-09-22T22:03:42.107Z,100240.87
2022-09-22T22:06:34.821Z,100241.56
2022-09-22T22:09:23.093Z,100234.53
2022-09-22T22:12:09.330Z,100241.53
2022-09-22T22:14:57.066Z,100237.13
2022-09-22T22:17:43.273Z,100234.16
2022-09-22T22:20:31.079Z,100228.38
2022-09-22T22:23:17.065Z,100241.38
2022-09-22T22:26:07.923Z,100235.34
2022-09-22T22:28:53.990Z,100234.22
2022-09-22T22:31:41.824Z,100235.53
2022-09-22T22:34:27.796Z,100226.84
2022-09-22T22:37:14.162Z,100226.25
2022-09-22T22:40:01.339Z,100222.94
2022-09-22T22:42:49.179Z,100228.97
2022-09-22T22:45:35.184Z,100218.25
2022-09-22T22:48:21.837Z,100216.63
2022-09-22T22:51:11.552Z,100221.28
2022-09-22T22:53:57.726Z,100217.28
2022-09-22T22:56:47.791Z,100218.19
2022-09-22T22:59:35.129Z,100221.62
2022-09-22T23:02:22.040Z,100211.41
2022-09-22T23:05:08.782Z,100226.34
2022-09-22T23:07:55.189Z,100219.56
2022-09-22T23:10:41.692Z,100213.50
2022-09-22T23:13:29.833Z,100206.25
2022-09-22T23:16:18.444Z,100209.44
2022-09-22T23:19:07.749Z,100206.84
2022-09-22T23:21:55.409Z,100214.19
2022-09-22T23:24:41.393Z,100210.09
2022-09-22T23:27:28.400Z,100212.53
2022-09-22T23:30:16.038Z,100209.81
2022-09-22T23:33:02.051Z,100215.88
2022-09-22T23:35:56.215Z,100206.09
2022-09-22T23:38:42.635Z,100208.28
2022-09-22T23:41:28.356Z,100203.22
2022-09-22T23:44:14.739Z,100210.25
2022-09-22T23:47:01.004Z,100197.88
2022-09-22T23:49:47.605Z,100207.41
2022-09-22T23:52:33.752Z,100210.47
2022-09-22T23:55:20.475Z,100209.56
2022-09-22T23:58:06.871Z,100208.88
